sensor_id;sensor_type;location;lat;lon;timestamp;temperature;humidity
41256;DHT22;26989;45.524;10.938;2022-07-04T00:00:49;26.00;91.80
41256;DHT22;26989;45.524;10.938;2022-07-04T00:03:16;25.90;92.00
41256;DHT22;26989;45.524;10.938;2022-07-04T00:05:43;25.90;91.90
41256;DHT22;26989;45.524;10.938;2022-07-04T00:08:10;26.00;91.80
41256;DHT22;26989;45.524;10.938;2022-07-04T00:10:36;26.00;91.60
41256;DHT22;26989;45.524;10.938;2022-07-04T00:13:03;26.00;91.40
41256;DHT22;26989;45.524;10.938;2022-07-04T00:15:30;26.10;91.30
41256;DHT22;26989;45.524;10.938;2022-07-04T00:17:57;26.10;91.20
41256;DHT22;26989;45.524;10.938;2022-07-04T00:20:24;26.00;91.30
41256;DHT22;26989;45.524;10.938;2022-07-04T00:22:51;26.00;91.20
41256;DHT22;26989;45.524;10.938;2022-07-04T00:25:18;26.10;91.10
41256;DHT22;26989;45.524;10.938;2022-07-04T00:27:45;26.10;90.70
41256;DHT22;26989;45.524;10.938;2022-07-04T00:30:12;26.20;90.60
41256;DHT22;26989;45.524;10.938;2022-07-04T00:32:39;26.30;90.40
41256;DHT22;26989;45.524;10.938;2022-07-04T00:35:06;26.20;90.50
41256;DHT22;26989;45.524;10.938;2022-07-04T00:37:33;26.10;90.40
41256;DHT22;26989;45.524;10.938;2022-07-04T00:40:03;26.00;90.40
41256;DHT22;26989;45.524;10.938;2022-07-04T00:42:30;26.10;90.20
41256;DHT22;26989;45.524;10.938;2022-07-04T00:44:57;26.00;90.10
41256;DHT22;26989;45.524;10.938;2022-07-04T00:47:24;25.80;90.50
41256;DHT22;26989;45.524;10.938;2022-07-04T00:49:51;25.90;90.30
41256;DHT22;26989;45.524;10.938;2022-07-04T00:52:18;26.00;90.00
41256;DHT22;26989;45.524;10.938;2022-07-04T00:54:46;25.90;90.60
41256;DHT22;26989;45.524;10.938;2022-07-04T00:57:13;26.00;90.00
41256;DHT22;26989;45.524;10.938;2022-07-04T00:59:40;26.00;89.80
41256;DHT22;26989;45.524;10.938;2022-07-04T01:02:07;26.00;89.90
41256;DHT22;26989;45.524;10.938;2022-07-04T01:04:35;25.70;90.00
41256;DHT22;26989;45.524;10.938;2022-07-04T01:07:03;25.70;90.10
41256;DHT22;26989;45.524;10.938;2022-07-04T01:09:31;25.80;90.00
41256;DHT22;26989;45.524;10.938;2022-07-04T01:11:57;25.70;90.00
41256;DHT22;26989;45.524;10.938;2022-07-04T01:14:24;25.70;89.70
41256;DHT22;26989;45.524;10.938;2022-07-04T01:16:51;25.60;90.80
41256;DHT22;26989;45.524;10.938;2022-07-04T01:19:18;25.60;90.70
41256;DHT22;26989;45.524;10.938;2022-07-04T01:21:45;25.60;90.30
41256;DHT22;26989;45.524;10.938;2022-07-04T01:24:12;25.70;90.00
41256;DHT22;26989;45.524;10.938;2022-07-04T01:26:39;25.80;90.00
41256;DHT22;26989;45.524;10.938;2022-07-04T01:29:06;25.70;90.10
41256;DHT22;26989;45.524;10.938;2022-07-04T01:31:33;25.70;90.00
41256;DHT22;26989;45.524;10.938;2022-07-04T01:34:00;25.60;90.10
41256;DHT22;26989;45.524;10.938;2022-07-04T01:36:27;25.70;90.10
41256;DHT22;26989;45.524;10.938;2022-07-04T01:38:54;25.70;90.10
41256;DHT22;26989;45.524;10.938;2022-07-04T01:41:23;25.80;90.00
41256;DHT22;26989;45.524;10.938;2022-07-04T01:43:49;25.80;90.00
41256;DHT22;26989;45.524;10.938;2022-07-04T01:46:16;25.70;90.20
41256;DHT22;26989;45.524;10.938;2022-07-04T01:48:43;25.60;90.70
41256;DHT22;26989;45.524;10.938;2022-07-04T01:51:10;25.50;90.70
41256;DHT22;26989;45.524;10.938;2022-07-04T01:53:37;25.40;91.00
41256;DHT22;26989;45.524;10.938;2022-07-04T01:56:04;25.40;91.10
41256;DHT22;26989;45.524;10.938;2022-07-04T01:58:31;25.50;91.30
41256;DHT22;26989;45.524;10.938;2022-07-04T02:00:58;25.30;91.60
41256;DHT22;26989;45.524;10.938;2022-07-04T02:03:44;25.40;91.50
41256;DHT22;26989;45.524;10.938;2022-07-04T02:06:12;25.50;91.40
41256;DHT22;26989;45.524;10.938;2022-07-04T02:08:39;25.70;91.30
41256;DHT22;26989;45.524;10.938;2022-07-04T02:11:24;25.60;91.20
41256;DHT22;26989;45.524;10.938;2022-07-04T02:13:51;25.70;91.30
41256;DHT22;26989;45.524;10.938;2022-07-04T02:16:18;25.70;91.40
41256;DHT22;26989;45.524;10.938;2022-07-04T02:18:45;25.60;91.60
41256;DHT22;26989;45.524;10.938;2022-07-04T02:21:12;25.40;91.90
41256;DHT22;26989;45.524;10.938;2022-07-04T02:23:39;25.40;92.10
41256;DHT22;26989;45.524;10.938;2022-07-04T02:26:06;25.40;92.20
41256;DHT22;26989;45.524;10.938;2022-07-04T02:28:34;25.40;92.20
41256;DHT22;26989;45.524;10.938;2022-07-04T02:31:01;25.40;92.20
41256;DHT22;26989;45.524;10.938;2022-07-04T02:33:28;25.50;92.10
41256;DHT22;26989;45.524;10.938;2022-07-04T02:35:55;25.50;92.10
41256;DHT22;26989;45.524;10.938;2022-07-04T02:38:22;25.50;92.20
41256;DHT22;26989;45.524;10.938;2022-07-04T02:40:48;25.50;92.30
41256;DHT22;26989;45.524;10.938;2022-07-04T02:43:15;25.50;92.30
41256;DHT22;26989;45.524;10.938;2022-07-04T02:45:42;25.50;92.40
41256;DHT22;26989;45.524;10.938;2022-07-04T02:48:09;25.50;92.30
41256;DHT22;26989;45.524;10.938;2022-07-04T02:50:36;25.50;92.20
41256;DHT22;26989;45.524;10.938;2022-07-04T02:53:03;25.50;92.30
41256;DHT22;26989;45.524;10.938;2022-07-04T02:55:29;25.60;92.30
41256;DHT22;26989;45.524;10.938;2022-07-04T02:57:56;25.60;92.30
41256;DHT22;26989;45.524;10.938;2022-07-04T03:00:23;25.50;92.30
41256;DHT22;26989;45.524;10.938;2022-07-04T03:02:50;25.40;92.30
41256;DHT22;26989;45.524;10.938;2022-07-04T03:05:17;25.40;92.30
41256;DHT22;26989;45.524;10.938;2022-07-04T03:07:44;25.30;92.40
41256;DHT22;26989;45.524;10.938;2022-07-04T03:10:11;25.40;92.20
41256;DHT22;26989;45.524;10.938;2022-07-04T03:12:37;25.30;92.20
41256;DHT22;26989;45.524;10.938;2022-07-04T03:15:05;25.30;92.10
41256;DHT22;26989;45.524;10.938;2022-07-04T03:17:32;25.10;92.30
41256;DHT22;26989;45.524;10.938;2022-07-04T03:19:59;25.10;92.40
41256;DHT22;26989;45.524;10.938;2022-07-04T03:22:26;25.10;92.20
41256;DHT22;26989;45.524;10.938;2022-07-04T03:24:53;25.10;92.00
41256;DHT22;26989;45.524;10.938;2022-07-04T03:27:21;25.10;91.90
41256;DHT22;26989;45.524;10.938;2022-07-04T03:29:49;25.10;91.70
41256;DHT22;26989;45.524;10.938;2022-07-04T03:32:16;25.20;91.50
41256;DHT22;26989;45.524;10.938;2022-07-04T03:34:43;25.20;91.50
41256;DHT22;26989;45.524;10.938;2022-07-04T03:37:10;25.00;91.50
41256;DHT22;26989;45.524;10.938;2022-07-04T03:39:37;25.00;91.60
41256;DHT22;26989;45.524;10.938;2022-07-04T03:42:04;25.00;91.50
41256;DHT22;26989;45.524;10.938;2022-07-04T03:44:31;25.10;91.40
41256;DHT22;26989;45.524;10.938;2022-07-04T03:46:57;25.00;91.50
41256;DHT22;26989;45.524;10.938;2022-07-04T03:49:25;25.00;91.50
41256;DHT22;26989;45.524;10.938;2022-07-04T03:51:52;25.00;91.50
41256;DHT22;26989;45.524;10.938;2022-07-04T03:54:19;25.00;91.60
41256;DHT22;26989;45.524;10.938;2022-07-04T03:56:46;25.00;91.70
41256;DHT22;26989;45.524;10.938;2022-07-04T03:59:13;25.00;91.70
41256;DHT22;26989;45.524;10.938;2022-07-04T04:01:40;25.00;91.90
41256;DHT22;26989;45.524;10.938;2022-07-04T04:04:08;25.10;92.00
41256;DHT22;26989;45.524;10.938;2022-07-04T04:06:53;25.10;92.00
41256;DHT22;26989;45.524;10.938;2022-07-04T04:09:20;25.20;91.90
41256;DHT22;26989;45.524;10.938;2022-07-04T04:11:47;25.30;91.80
41256;DHT22;26989;45.524;10.938;2022-07-04T04:14:14;25.40;91.30
41256;DHT22;26989;45.524;10.938;2022-07-04T04:16:41;25.30;91.30
41256;DHT22;26989;45.524;10.938;2022-07-04T04:19:10;25.40;91.20
41256;DHT22;26989;45.524;10.938;2022-07-04T04:21:37;25.50;91.10
41256;DHT22;26989;45.524;10.938;2022-07-04T04:24:04;25.60;91.10
41256;DHT22;26989;45.524;10.938;2022-07-04T04:26:31;25.70;91.00
41256;DHT22;26989;45.524;10.938;2022-07-04T04:28:58;25.70;91.00
41256;DHT22;26989;45.524;10.938;2022-07-04T04:31:25;25.80;91.20
41256;DHT22;26989;45.524;10.938;2022-07-04T04:33:52;25.90;91.10
41256;DHT22;26989;45.524;10.938;2022-07-04T04:36:18;25.90;91.10
41256;DHT22;26989;45.524;10.938;2022-07-04T04:38:45;26.60;90.60
41256;DHT22;26989;45.524;10.938;2022-07-04T04:41:12;27.90;88.60
41256;DHT22;26989;45.524;10.938;2022-07-04T04:43:39;28.40;86.70
41256;DHT22;26989;45.524;10.938;2022-07-04T04:46:06;28.90;85.70
41256;DHT22;26989;45.524;10.938;2022-07-04T04:48:33;29.00;85.00
41256;DHT22;26989;45.524;10.938;2022-07-04T04:51:00;29.20;85.30
41256;DHT22;26989;45.524;10.938;2022-07-04T04:53:34;29.20;85.50
41256;DHT22;26989;45.524;10.938;2022-07-04T04:56:01;30.00;84.50
41256;DHT22;26989;45.524;10.938;2022-07-04T04:58:28;29.90;84.20
41256;DHT22;26989;45.524;10.938;2022-07-04T05:00:55;30.50;83.50
41256;DHT22;26989;45.524;10.938;2022-07-04T05:03:42;31.00;83.80
41256;DHT22;26989;45.524;10.938;2022-07-04T05:06:09;31.30;81.60
41256;DHT22;26989;45.524;10.938;2022-07-04T05:08:36;32.00;80.30
41256;DHT22;26989;45.524;10.938;2022-07-04T05:11:06;32.80;79.50
41256;DHT22;26989;45.524;10.938;2022-07-04T05:13:33;33.30;78.50
41256;DHT22;26989;45.524;10.938;2022-07-04T05:16:00;33.80;77.00
41256;DHT22;26989;45.524;10.938;2022-07-04T05:18:27;32.80;76.80
41256;DHT22;26989;45.524;10.938;2022-07-04T05:20:54;34.30;76.10
41256;DHT22;26989;45.524;10.938;2022-07-04T05:23:21;35.50;75.30
41256;DHT22;26989;45.524;10.938;2022-07-04T05:25:48;34.70;76.60
41256;DHT22;26989;45.524;10.938;2022-07-04T05:28:15;34.40;76.70
41256;DHT22;26989;45.524;10.938;2022-07-04T05:30:42;35.20;74.00
41256;DHT22;26989;45.524;10.938;2022-07-04T05:33:09;35.10;73.30
41256;DHT22;26989;45.524;10.938;2022-07-04T05:35:36;36.70;72.90
41256;DHT22;26989;45.524;10.938;2022-07-04T05:38:03;38.20;70.80
41256;DHT22;26989;45.524;10.938;2022-07-04T05:40:30;39.50;69.30
41256;DHT22;26989;45.524;10.938;2022-07-04T05:42:57;40.50;68.10
41256;DHT22;26989;45.524;10.938;2022-07-04T05:45:24;40.70;67.60
41256;DHT22;26989;45.524;10.938;2022-07-04T05:47:50;41.20;67.10
41256;DHT22;26989;45.524;10.938;2022-07-04T05:50:17;41.00;66.80
41256;DHT22;26989;45.524;10.938;2022-07-04T05:52:44;41.30;66.90
41256;DHT22;26989;45.524;10.938;2022-07-04T05:55:12;41.70;66.60
41256;DHT22;26989;45.524;10.938;2022-07-04T05:57:39;41.40;65.90
41256;DHT22;26989;45.524;10.938;2022-07-04T06:00:11;41.70;66.10
41256;DHT22;26989;45.524;10.938;2022-07-04T06:02:41;42.20;66.20
41256;DHT22;26989;45.524;10.938;2022-07-04T06:05:09;42.20;66.20
41256;DHT22;26989;45.524;10.938;2022-07-04T06:07:36;42.50;66.20
41256;DHT22;26989;45.524;10.938;2022-07-04T06:10:05;42.20;65.80
41256;DHT22;26989;45.524;10.938;2022-07-04T06:12:32;42.60;65.80
41256;DHT22;26989;45.524;10.938;2022-07-04T06:14:59;41.90;65.20
41256;DHT22;26989;45.524;10.938;2022-07-04T06:17:26;42.30;65.10
41256;DHT22;26989;45.524;10.938;2022-07-04T06:19:52;42.90;64.50
41256;DHT22;26989;45.524;10.938;2022-07-04T06:22:19;43.10;63.80
41256;DHT22;26989;45.524;10.938;2022-07-04T06:24:51;42.40;62.90
41256;DHT22;26989;45.524;10.938;2022-07-04T06:27:18;41.60;63.50
41256;DHT22;26989;45.524;10.938;2022-07-04T06:29:45;42.30;63.60
41256;DHT22;26989;45.524;10.938;2022-07-04T06:32:12;42.30;63.60
41256;DHT22;26989;45.524;10.938;2022-07-04T06:34:39;42.40;63.30
41256;DHT22;26989;45.524;10.938;2022-07-04T06:37:32;42.70;63.20
41256;DHT22;26989;45.524;10.938;2022-07-04T06:40:04;43.00;64.10
41256;DHT22;26989;45.524;10.938;2022-07-04T06:42:31;43.10;63.60
41256;DHT22;26989;45.524;10.938;2022-07-04T06:44:58;43.50;63.70
41256;DHT22;26989;45.524;10.938;2022-07-04T06:47:25;43.10;63.40
41256;DHT22;26989;45.524;10.938;2022-07-04T06:49:52;42.80;63.90
41256;DHT22;26989;45.524;10.938;2022-07-04T06:52:18;43.10;63.90
41256;DHT22;26989;45.524;10.938;2022-07-04T06:54:45;43.10;63.80
41256;DHT22;26989;45.524;10.938;2022-07-04T06:57:12;42.50;63.50
41256;DHT22;26989;45.524;10.938;2022-07-04T06:59:56;43.30;63.50
41256;DHT22;26989;45.524;10.938;2022-07-04T07:02:23;42.80;63.40
41256;DHT22;26989;45.524;10.938;2022-07-04T07:04:50;42.20;63.30
41256;DHT22;26989;45.524;10.938;2022-07-04T07:07:17;41.50;64.10
41256;DHT22;26989;45.524;10.938;2022-07-04T07:09:44;41.70;64.40
41256;DHT22;26989;45.524;10.938;2022-07-04T07:12:11;40.20;63.90
41256;DHT22;26989;45.524;10.938;2022-07-04T07:14:38;37.50;65.70
41256;DHT22;26989;45.524;10.938;2022-07-04T07:17:05;36.30;66.90
41256;DHT22;26989;45.524;10.938;2022-07-04T07:19:32;35.40;68.60
41256;DHT22;26989;45.524;10.938;2022-07-04T07:21:59;34.80;69.60
41256;DHT22;26989;45.524;10.938;2022-07-04T07:24:26;34.50;70.50
41256;DHT22;26989;45.524;10.938;2022-07-04T07:26:57;34.40;71.10
41256;DHT22;26989;45.524;10.938;2022-07-04T07:29:24;34.10;71.50
41256;DHT22;26989;45.524;10.938;2022-07-04T07:31:51;34.30;71.60
41256;DHT22;26989;45.524;10.938;2022-07-04T07:34:17;34.30;71.70
41256;DHT22;26989;45.524;10.938;2022-07-04T07:36:44;34.10;71.80
41256;DHT22;26989;45.524;10.938;2022-07-04T07:39:11;33.90;72.50
41256;DHT22;26989;45.524;10.938;2022-07-04T07:41:38;33.70;72.60
41256;DHT22;26989;45.524;10.938;2022-07-04T07:44:05;33.50;73.00
41256;DHT22;26989;45.524;10.938;2022-07-04T07:46:32;33.50;72.90
41256;DHT22;26989;45.524;10.938;2022-07-04T07:48:59;33.60;73.00
41256;DHT22;26989;45.524;10.938;2022-07-04T07:51:26;33.60;73.20
41256;DHT22;26989;45.524;10.938;2022-07-04T07:53:53;33.40;74.00
41256;DHT22;26989;45.524;10.938;2022-07-04T07:56:39;33.70;73.90
41256;DHT22;26989;45.524;10.938;2022-07-04T07:59:07;34.10;72.70
41256;DHT22;26989;45.524;10.938;2022-07-04T08:01:34;34.00;72.30
41256;DHT22;26989;45.524;10.938;2022-07-04T08:04:01;34.10;72.50
41256;DHT22;26989;45.524;10.938;2022-07-04T08:06:48;33.90;72.00
41256;DHT22;26989;45.524;10.938;2022-07-04T08:09:35;34.30;71.70
41256;DHT22;26989;45.524;10.938;2022-07-04T08:12:03;34.30;71.30
41256;DHT22;26989;45.524;10.938;2022-07-04T08:14:32;34.20;71.60
41256;DHT22;26989;45.524;10.938;2022-07-04T08:17:00;34.00;71.00
41256;DHT22;26989;45.524;10.938;2022-07-04T08:19:27;34.00;71.30
41256;DHT22;26989;45.524;10.938;2022-07-04T08:21:54;34.00;71.50
41256;DHT22;26989;45.524;10.938;2022-07-04T08:24:40;34.20;71.90
41256;DHT22;26989;45.524;10.938;2022-07-04T08:27:07;34.80;70.90
41256;DHT22;26989;45.524;10.938;2022-07-04T08:29:34;34.80;70.30
41256;DHT22;26989;45.524;10.938;2022-07-04T08:32:02;34.60;70.50
41256;DHT22;26989;45.524;10.938;2022-07-04T08:34:29;34.40;70.80
41256;DHT22;26989;45.524;10.938;2022-07-04T08:36:56;34.40;71.00
41256;DHT22;26989;45.524;10.938;2022-07-04T08:39:23;34.20;71.40
41256;DHT22;26989;45.524;10.938;2022-07-04T08:41:52;34.10;71.00
41256;DHT22;26989;45.524;10.938;2022-07-04T08:44:19;33.90;70.60
41256;DHT22;26989;45.524;10.938;2022-07-04T08:46:51;33.60;71.90
41256;DHT22;26989;45.524;10.938;2022-07-04T08:49:21;33.30;72.20
41256;DHT22;26989;45.524;10.938;2022-07-04T08:51:59;33.00;73.00
41256;DHT22;26989;45.524;10.938;2022-07-04T08:54:27;33.00;73.40
41256;DHT22;26989;45.524;10.938;2022-07-04T08:57:14;33.00;73.60
41256;DHT22;26989;45.524;10.938;2022-07-04T09:00:01;33.10;74.00
41256;DHT22;26989;45.524;10.938;2022-07-04T09:02:29;33.10;73.20
41256;DHT22;26989;45.524;10.938;2022-07-04T09:04:56;33.20;73.20
41256;DHT22;26989;45.524;10.938;2022-07-04T09:07:23;33.20;73.30
41256;DHT22;26989;45.524;10.938;2022-07-04T09:09:50;33.60;73.60
41256;DHT22;26989;45.524;10.938;2022-07-04T09:12:19;34.10;73.30
41256;DHT22;26989;45.524;10.938;2022-07-04T09:14:46;33.90;72.20
41256;DHT22;26989;45.524;10.938;2022-07-04T09:17:13;33.70;73.00
41256;DHT22;26989;45.524;10.938;2022-07-04T09:19:40;33.90;73.20
41256;DHT22;26989;45.524;10.938;2022-07-04T09:22:10;33.90;73.30
41256;DHT22;26989;45.524;10.938;2022-07-04T09:27:32;34.20;72.00
41256;DHT22;26989;45.524;10.938;2022-07-04T09:30:00;33.90;71.70
41256;DHT22;26989;45.524;10.938;2022-07-04T09:32:37;33.70;72.20
41256;DHT22;26989;45.524;10.938;2022-07-04T09:35:07;33.30;72.70
41256;DHT22;26989;45.524;10.938;2022-07-04T09:37:40;33.20;73.30
41256;DHT22;26989;45.524;10.938;2022-07-04T09:40:10;33.10;73.50
41256;DHT22;26989;45.524;10.938;2022-07-04T09:42:41;33.00;73.20
41256;DHT22;26989;45.524;10.938;2022-07-04T09:45:10;33.00;72.30
41256;DHT22;26989;45.524;10.938;2022-07-04T09:47:39;32.90;73.00
41256;DHT22;26989;45.524;10.938;2022-07-04T09:55:23;33.30;72.30
41256;DHT22;26989;45.524;10.938;2022-07-04T09:57:50;33.60;71.80
41256;DHT22;26989;45.524;10.938;2022-07-04T10:00:25;34.10;71.20
41256;DHT22;26989;45.524;10.938;2022-07-04T10:02:55;34.40;70.90
41256;DHT22;26989;45.524;10.938;2022-07-04T10:05:27;34.80;70.60
41256;DHT22;26989;45.524;10.938;2022-07-04T10:07:57;35.00;69.50
41256;DHT22;26989;45.524;10.938;2022-07-04T10:13:04;35.10;69.10
41256;DHT22;26989;45.524;10.938;2022-07-04T10:15:39;35.20;69.40
41256;DHT22;26989;45.524;10.938;2022-07-04T10:18:11;35.40;69.70
41256;DHT22;26989;45.524;10.938;2022-07-04T10:20:41;35.50;69.30
41256;DHT22;26989;45.524;10.938;2022-07-04T10:23:09;35.50;68.70
41256;DHT22;26989;45.524;10.938;2022-07-04T10:25:41;34.70;68.50
41256;DHT22;26989;45.524;10.938;2022-07-04T10:28:09;35.20;69.70
41256;DHT22;26989;45.524;10.938;2022-07-04T10:30:37;35.50;69.40
41256;DHT22;26989;45.524;10.938;2022-07-04T10:33:09;35.80;68.90
41256;DHT22;26989;45.524;10.938;2022-07-04T10:35:54;35.90;68.60
41256;DHT22;26989;45.524;10.938;2022-07-04T10:38:29;35.70;68.90
41256;DHT22;26989;45.524;10.938;2022-07-04T10:51:45;35.30;68.60
41256;DHT22;26989;45.524;10.938;2022-07-04T10:54:32;35.40;69.20
41256;DHT22;26989;45.524;10.938;2022-07-04T11:02:31;35.30;70.00
41256;DHT22;26989;45.524;10.938;2022-07-04T11:18:12;34.80;70.80
41256;DHT22;26989;45.524;10.938;2022-07-04T11:20:46;34.80;70.80
41256;DHT22;26989;45.524;10.938;2022-07-04T11:23:18;34.70;70.60
41256;DHT22;26989;45.524;10.938;2022-07-04T11:25:49;34.30;70.60
41256;DHT22;26989;45.524;10.938;2022-07-04T11:28:26;34.50;71.70
41256;DHT22;26989;45.524;10.938;2022-07-04T11:31:12;34.40;71.50
41256;DHT22;26989;45.524;10.938;2022-07-04T11:33:40;34.60;70.90
41256;DHT22;26989;45.524;10.938;2022-07-04T11:41:17;35.00;70.00
41256;DHT22;26989;45.524;10.938;2022-07-04T11:44:05;35.40;69.20
41256;DHT22;26989;45.524;10.938;2022-07-04T11:46:50;35.50;69.50
41256;DHT22;26989;45.524;10.938;2022-07-04T11:49:17;34.90;70.00
41256;DHT22;26989;45.524;10.938;2022-07-04T11:51:47;33.90;70.70
41256;DHT22;26989;45.524;10.938;2022-07-04T11:54:14;33.70;71.20
41256;DHT22;26989;45.524;10.938;2022-07-04T11:57:24;33.30;70.50
41256;DHT22;26989;45.524;10.938;2022-07-04T11:59:53;33.10;70.90
41256;DHT22;26989;45.524;10.938;2022-07-04T12:02:20;32.50;72.30
41256;DHT22;26989;45.524;10.938;2022-07-04T12:04:48;32.30;72.30
41256;DHT22;26989;45.524;10.938;2022-07-04T12:07:17;32.80;71.90
41256;DHT22;26989;45.524;10.938;2022-07-04T12:09:45;32.80;71.90
41256;DHT22;26989;45.524;10.938;2022-07-04T12:12:13;32.40;72.50
41256;DHT22;26989;45.524;10.938;2022-07-04T12:15:05;32.50;72.20
41256;DHT22;26989;45.524;10.938;2022-07-04T12:17:37;32.80;72.30
41256;DHT22;26989;45.524;10.938;2022-07-04T12:20:14;33.10;72.50
41256;DHT22;26989;45.524;10.938;2022-07-04T12:22:50;33.50;71.60
41256;DHT22;26989;45.524;10.938;2022-07-04T12:27:53;33.50;69.90
41256;DHT22;26989;45.524;10.938;2022-07-04T12:30:20;33.40;70.40
41256;DHT22;26989;45.524;10.938;2022-07-04T12:32:52;33.40;69.90
41256;DHT22;26989;45.524;10.938;2022-07-04T12:35:46;33.40;69.80
41256;DHT22;26989;45.524;10.938;2022-07-04T12:41:05;33.50;69.00
41256;DHT22;26989;45.524;10.938;2022-07-04T12:48:39;33.70;68.40
41256;DHT22;26989;45.524;10.938;2022-07-04T12:51:14;33.90;68.30
41256;DHT22;26989;45.524;10.938;2022-07-04T12:53:43;33.30;68.20
41256;DHT22;26989;45.524;10.938;2022-07-04T12:56:36;33.70;67.80
41256;DHT22;26989;45.524;10.938;2022-07-04T12:59:06;34.00;69.40
41256;DHT22;26989;45.524;10.938;2022-07-04T13:01:39;34.20;69.10
41256;DHT22;26989;45.524;10.938;2022-07-04T13:04:07;34.20;69.30
41256;DHT22;26989;45.524;10.938;2022-07-04T13:06:34;34.30;69.00
41256;DHT22;26989;45.524;10.938;2022-07-04T13:09:03;34.60;69.20
41256;DHT22;26989;45.524;10.938;2022-07-04T13:11:30;34.30;69.10
41256;DHT22;26989;45.524;10.938;2022-07-04T13:14:15;34.20;69.30
41256;DHT22;26989;45.524;10.938;2022-07-04T13:16:42;34.40;69.80
41256;DHT22;26989;45.524;10.938;2022-07-04T13:19:09;34.90;69.90
41256;DHT22;26989;45.524;10.938;2022-07-04T13:21:36;35.30;68.60
41256;DHT22;26989;45.524;10.938;2022-07-04T13:24:03;35.60;68.10
41256;DHT22;26989;45.524;10.938;2022-07-04T13:26:30;34.60;67.00
41256;DHT22;26989;45.524;10.938;2022-07-04T13:28:59;34.90;67.60
41256;DHT22;26989;45.524;10.938;2022-07-04T13:31:27;35.20;68.20
41256;DHT22;26989;45.524;10.938;2022-07-04T13:33:55;35.50;67.50
41256;DHT22;26989;45.524;10.938;2022-07-04T13:36:23;35.70;66.90
41256;DHT22;26989;45.524;10.938;2022-07-04T13:38:49;36.10;66.60
41256;DHT22;26989;45.524;10.938;2022-07-04T13:41:32;36.00;66.00
41256;DHT22;26989;45.524;10.938;2022-07-04T13:44:00;36.30;66.70
41256;DHT22;26989;45.524;10.938;2022-07-04T13:46:27;36.20;66.60
41256;DHT22;26989;45.524;10.938;2022-07-04T13:48:54;36.20;66.40
41256;DHT22;26989;45.524;10.938;2022-07-04T13:51:21;36.30;66.80
41256;DHT22;26989;45.524;10.938;2022-07-04T13:53:48;36.40;66.30
41256;DHT22;26989;45.524;10.938;2022-07-04T13:56:15;36.30;66.80
41256;DHT22;26989;45.524;10.938;2022-07-04T13:58:46;36.30;65.90
41256;DHT22;26989;45.524;10.938;2022-07-04T14:01:13;36.30;66.30
41256;DHT22;26989;45.524;10.938;2022-07-04T14:03:47;36.50;66.80
41256;DHT22;26989;45.524;10.938;2022-07-04T14:06:17;36.70;66.20
41256;DHT22;26989;45.524;10.938;2022-07-04T14:08:44;36.70;66.40
41256;DHT22;26989;45.524;10.938;2022-07-04T14:11:11;36.90;65.70
41256;DHT22;26989;45.524;10.938;2022-07-04T14:13:38;36.80;65.70
41256;DHT22;26989;45.524;10.938;2022-07-04T14:16:06;36.80;65.80
41256;DHT22;26989;45.524;10.938;2022-07-04T14:18:34;36.80;65.50
41256;DHT22;26989;45.524;10.938;2022-07-04T14:21:01;36.80;65.60
41256;DHT22;26989;45.524;10.938;2022-07-04T14:23:28;36.90;65.50
41256;DHT22;26989;45.524;10.938;2022-07-04T14:26:22;36.80;65.30
41256;DHT22;26989;45.524;10.938;2022-07-04T14:28:51;36.90;68.90
41256;DHT22;26989;45.524;10.938;2022-07-04T14:31:19;36.80;67.90
41256;DHT22;26989;45.524;10.938;2022-07-04T14:33:46;36.70;65.40
41256;DHT22;26989;45.524;10.938;2022-07-04T14:36:13;36.80;65.70
41256;DHT22;26989;45.524;10.938;2022-07-04T14:38:41;36.90;66.50
41256;DHT22;26989;45.524;10.938;2022-07-04T14:41:08;36.90;66.40
41256;DHT22;26989;45.524;10.938;2022-07-04T14:43:42;36.80;66.50
41256;DHT22;26989;45.524;10.938;2022-07-04T14:46:10;37.00;66.00
41256;DHT22;26989;45.524;10.938;2022-07-04T14:48:37;36.80;65.50
41256;DHT22;26989;45.524;10.938;2022-07-04T14:51:05;36.90;65.40
41256;DHT22;26989;45.524;10.938;2022-07-04T14:53:33;37.10;65.60
41256;DHT22;26989;45.524;10.938;2022-07-04T14:56:00;37.00;65.20
41256;DHT22;26989;45.524;10.938;2022-07-04T14:58:27;37.10;65.00
41256;DHT22;26989;45.524;10.938;2022-07-04T15:00:53;36.90;65.60
41256;DHT22;26989;45.524;10.938;2022-07-04T15:03:20;37.00;66.00
41256;DHT22;26989;45.524;10.938;2022-07-04T15:05:48;37.10;65.40
41256;DHT22;26989;45.524;10.938;2022-07-04T15:08:15;37.10;65.20
41256;DHT22;26989;45.524;10.938;2022-07-04T15:10:41;37.10;65.60
41256;DHT22;26989;45.524;10.938;2022-07-04T15:13:25;37.10;65.20
41256;DHT22;26989;45.524;10.938;2022-07-04T15:15:55;37.00;65.10
41256;DHT22;26989;45.524;10.938;2022-07-04T15:18:42;36.90;65.60
41256;DHT22;26989;45.524;10.938;2022-07-04T15:21:09;36.80;65.50
41256;DHT22;26989;45.524;10.938;2022-07-04T15:23:55;36.80;65.30
41256;DHT22;26989;45.524;10.938;2022-07-04T15:26:43;37.00;65.20
41256;DHT22;26989;45.524;10.938;2022-07-04T15:29:10;37.10;64.80
41256;DHT22;26989;45.524;10.938;2022-07-04T15:31:40;36.90;65.00
41256;DHT22;26989;45.524;10.938;2022-07-04T15:34:07;37.10;65.00
41256;DHT22;26989;45.524;10.938;2022-07-04T15:36:34;37.30;65.00
41256;DHT22;26989;45.524;10.938;2022-07-04T15:39:10;37.10;64.70
41256;DHT22;26989;45.524;10.938;2022-07-04T15:41:41;37.10;64.80
41256;DHT22;26989;45.524;10.938;2022-07-04T15:44:08;37.10;64.60
41256;DHT22;26989;45.524;10.938;2022-07-04T15:46:35;36.90;65.00
41256;DHT22;26989;45.524;10.938;2022-07-04T15:49:22;36.80;65.10
41256;DHT22;26989;45.524;10.938;2022-07-04T15:51:49;36.80;65.20
41256;DHT22;26989;45.524;10.938;2022-07-04T15:54:16;36.80;65.50
41256;DHT22;26989;45.524;10.938;2022-07-04T15:56:43;36.40;65.40
41256;DHT22;26989;45.524;10.938;2022-07-04T15:59:10;36.10;65.50
41256;DHT22;26989;45.524;10.938;2022-07-04T16:01:37;35.80;66.10
41256;DHT22;26989;45.524;10.938;2022-07-04T16:04:04;35.80;66.40
41256;DHT22;26989;45.524;10.938;2022-07-04T16:06:31;36.00;66.50
41256;DHT22;26989;45.524;10.938;2022-07-04T16:08:58;36.60;66.40
41256;DHT22;26989;45.524;10.938;2022-07-04T16:11:25;36.60;65.90
41256;DHT22;26989;45.524;10.938;2022-07-04T16:13:52;36.40;66.00
41256;DHT22;26989;45.524;10.938;2022-07-04T16:16:20;36.10;66.50
41256;DHT22;26989;45.524;10.938;2022-07-04T16:18:48;35.80;67.30
41256;DHT22;26989;45.524;10.938;2022-07-04T16:21:15;35.60;67.50
41256;DHT22;26989;45.524;10.938;2022-07-04T16:23:42;35.30;67.80